Brandon, FL

9:35 PM EDT en Agosto 22, 2014 (GMT -0400)
Plant City Municipal | Change Station
CLOSE
Current Station
Aeropuerto
Location: Plant City,
Altura: 154 ft
Estaciones meteorológicas cercanas

Alt 154 ft 28.00 °N, 82.16 °W | Updated 22 days ago

Thunderstorm
Tormenta
83 ° F
Sensación térmica 87 ° F
N
3
Viento Variable Viento desde NNO
Gusts 6 mph

Hoy
Alta -- | Baja -- ° F
--% Posibilidad de precipitaciones
Ayer
Alta -- | Baja -- ° F
Precip. -- pul
7:02 AM 8:00 PM
Creciente menguante, 6% visible
Presión 29.98 pul
Visibilidad 10.0 Millas
Nubes Nubes dispersas 5500 ft
Índice de calor 87 ° F
Punto de rocío 73 ° F
Humedad 73%
Precipitaciones 0.00 pul
Espesor de la nieve No disponible.
UV 9 de una escala de 12
Polen 4.60 de una escala de 12
Calidad del aire No disponible.
Flu Activity No disponible.
METAR KPCM 311955Z AUTO 28003KT 10SM SCT055 33/16 A2998 RMK AO2

More Conditions Fewer Conditions

Presión 29.98 pul
Visibilidad 10.0 Millas
Nubes Nubes dispersas 5500 ft
Índice de calor 87 ° F
Punto de rocío 73 ° F
Humedad 73%
Precipitaciones 0.00 pul
Espesor de la nieve No disponible.
UV 9 de una escala de 12
Polen 4.60 de una escala de 12
Calidad del aire No disponible.
Flu Activity No disponible.
METAR KPCM 311955Z AUTO 28003KT 10SM SCT055 33/16 A2998 RMK AO2

More Conditions Fewer Conditions

10-Day Weather Forecast

Almanac

Astronomía

Aug. 22, 2014 Salida Puesta
Hora real 7:02 AM EDT 8:00 PM EDT
Crepúsculo civil 6:38 AM EDT 8:24 PM EDT
Crepúsculo náutico 6:10 AM EDT 8:53 PM EDT
Crepúsculo astronómico 5:40 AM EDT 9:22 PM EDT
Luna 4:30 AM EDT (8/22) 6:03 PM EDT (8/22)
Horas de luz 13h 46m
Horas de luz
12h 57m
Tomorrow will be 1m 31s shorter.
Creciente menguante, 6% of the Moon is Illuminated
Hoy
Creciente menguante
Ago 25
Nueva
Sep 2
Cuarto creciente
Sep 8
Luna llena
Sep 15
Cuarto menguante

Extremos de hoy

Máximos del estado Bajos del estado

Community

WunderPhotos

Upload Photos

1,746,337 ¡fotos cargadas!

WunderBlogs® & News

Nearby

Grosos de nieve

Estación Profundido Altura
No tenemos constancia de nieve nueva.

Actividad de terremotos

Ciudad Distance Mag. Tiempo y dato
No hay informes recientes de la actividad sísmica.
Magnitud mínima muestra es 2,5.

Temperaturas de aguas costeras

Lugar Temperatura
St Petersburg, FL 91.0 ° F
Old Port Tampa, FL 90.0 ° F
McKay Bay Entrance, FL 91.0 ° F

Estaciones meteorológicas cercanas